sensor_id;sensor_type;location;lat;lon;timestamp;P1;durP1;ratioP1;P2;durP2;ratioP2
67571;SDS011;54397;47.506;19.158;2023-05-29T00:02:14;4.35;;;2.33;;
67571;SDS011;54397;47.506;19.158;2023-05-29T00:05:36;3.08;;;2.05;;
67571;SDS011;54397;47.506;19.158;2023-05-29T00:08:58;2.70;;;2.15;;
67571;SDS011;54397;47.506;19.158;2023-05-29T00:12:22;7.07;;;2.50;;
67571;SDS011;54397;47.506;19.158;2023-05-29T00:15:46;4.70;;;2.25;;
67571;SDS011;54397;47.506;19.158;2023-05-29T00:19:11;3.28;;;2.35;;
67571;SDS011;54397;47.506;19.158;2023-05-29T00:22:32;3.92;;;2.50;;
67571;SDS011;54397;47.506;19.158;2023-05-29T00:25:54;4.93;;;2.80;;
67571;SDS011;54397;47.506;19.158;2023-05-29T00:29:18;3.42;;;2.30;;
67571;SDS011;54397;47.506;19.158;2023-05-29T00:32:43;3.50;;;2.25;;
67571;SDS011;54397;47.506;19.158;2023-05-29T00:36:05;5.03;;;2.17;;
67571;SDS011;54397;47.506;19.158;2023-05-29T00:39:29;4.13;;;2.55;;
67571;SDS011;54397;47.506;19.158;2023-05-29T00:42:50;3.08;;;2.33;;
67571;SDS011;54397;47.506;19.158;2023-05-29T00:46:13;6.15;;;2.65;;
67571;SDS011;54397;47.506;19.158;2023-05-29T00:49:35;5.13;;;2.50;;
67571;SDS011;54397;47.506;19.158;2023-05-29T00:52:59;5.50;;;2.70;;
67571;SDS011;54397;47.506;19.158;2023-05-29T00:56:26;3.28;;;2.38;;
67571;SDS011;54397;47.506;19.158;2023-05-29T00:59:47;3.50;;;2.28;;
67571;SDS011;54397;47.506;19.158;2023-05-29T01:03:12;4.05;;;2.15;;
67571;SDS011;54397;47.506;19.158;2023-05-29T01:06:38;3.05;;;2.30;;
67571;SDS011;54397;47.506;19.158;2023-05-29T01:10:01;3.33;;;2.60;;
67571;SDS011;54397;47.506;19.158;2023-05-29T01:13:26;3.10;;;2.30;;
67571;SDS011;54397;47.506;19.158;2023-05-29T01:16:53;5.30;;;2.60;;
67571;SDS011;54397;47.506;19.158;2023-05-29T01:27:33;4.63;;;2.22;;
67571;SDS011;54397;47.506;19.158;2023-05-29T01:31:02;4.35;;;2.38;;
67571;SDS011;54397;47.506;19.158;2023-05-29T01:34:25;12.55;;;6.47;;
67571;SDS011;54397;47.506;19.158;2023-05-29T01:37:47;7.38;;;3.45;;
67571;SDS011;54397;47.506;19.158;2023-05-29T01:41:09;5.32;;;2.53;;
67571;SDS011;54397;47.506;19.158;2023-05-29T01:44:31;3.60;;;2.30;;
67571;SDS011;54397;47.506;19.158;2023-05-29T01:47:53;3.50;;;2.40;;
67571;SDS011;54397;47.506;19.158;2023-05-29T01:51:20;3.88;;;2.58;;
67571;SDS011;54397;47.506;19.158;2023-05-29T01:54:42;3.47;;;2.17;;
67571;SDS011;54397;47.506;19.158;2023-05-29T01:58:08;4.15;;;2.33;;
67571;SDS011;54397;47.506;19.158;2023-05-29T02:01:32;3.45;;;2.50;;
67571;SDS011;54397;47.506;19.158;2023-05-29T02:04:54;3.83;;;2.03;;
67571;SDS011;54397;47.506;19.158;2023-05-29T02:08:17;3.83;;;2.25;;
67571;SDS011;54397;47.506;19.158;2023-05-29T02:11:41;3.15;;;2.13;;
67571;SDS011;54397;47.506;19.158;2023-05-29T02:15:07;3.30;;;2.03;;
67571;SDS011;54397;47.506;19.158;2023-05-29T02:18:31;17.50;;;9.55;;
67571;SDS011;54397;47.506;19.158;2023-05-29T02:21:53;8.35;;;4.68;;
67571;SDS011;54397;47.506;19.158;2023-05-29T02:25:17;4.95;;;2.42;;
67571;SDS011;54397;47.506;19.158;2023-05-29T02:28:39;3.00;;;2.00;;
67571;SDS011;54397;47.506;19.158;2023-05-29T02:32:05;3.70;;;2.20;;
67571;SDS011;54397;47.506;19.158;2023-05-29T02:35:30;2.88;;;2.30;;
67571;SDS011;54397;47.506;19.158;2023-05-29T02:38:51;3.70;;;2.20;;
67571;SDS011;54397;47.506;19.158;2023-05-29T02:42:13;3.50;;;2.40;;
67571;SDS011;54397;47.506;19.158;2023-05-29T02:45:34;3.95;;;2.28;;
67571;SDS011;54397;47.506;19.158;2023-05-29T02:48:56;3.38;;;2.35;;
67571;SDS011;54397;47.506;19.158;2023-05-29T02:52:18;3.10;;;2.25;;
67571;SDS011;54397;47.506;19.158;2023-05-29T02:55:40;9.40;;;2.25;;
67571;SDS011;54397;47.506;19.158;2023-05-29T02:59:01;3.72;;;2.33;;
67571;SDS011;54397;47.506;19.158;2023-05-29T03:02:23;2.53;;;2.20;;
67571;SDS011;54397;47.506;19.158;2023-05-29T03:05:45;2.63;;;2.00;;
67571;SDS011;54397;47.506;19.158;2023-05-29T03:09:08;2.65;;;1.73;;
67571;SDS011;54397;47.506;19.158;2023-05-29T03:12:29;4.35;;;2.38;;
67571;SDS011;54397;47.506;19.158;2023-05-29T03:15:55;3.30;;;2.17;;
67571;SDS011;54397;47.506;19.158;2023-05-29T03:19:18;4.35;;;2.38;;
67571;SDS011;54397;47.506;19.158;2023-05-29T03:22:42;3.65;;;2.28;;
67571;SDS011;54397;47.506;19.158;2023-05-29T03:26:03;3.55;;;2.00;;
67571;SDS011;54397;47.506;19.158;2023-05-29T03:29:26;2.55;;;2.00;;
67571;SDS011;54397;47.506;19.158;2023-05-29T03:32:48;3.67;;;2.03;;
67571;SDS011;54397;47.506;19.158;2023-05-29T03:36:10;3.22;;;1.67;;
67571;SDS011;54397;47.506;19.158;2023-05-29T03:39:34;2.28;;;1.88;;
67571;SDS011;54397;47.506;19.158;2023-05-29T03:42:55;2.97;;;2.10;;
67571;SDS011;54397;47.506;19.158;2023-05-29T03:46:17;3.13;;;2.08;;
67571;SDS011;54397;47.506;19.158;2023-05-29T03:49:41;4.93;;;1.90;;
67571;SDS011;54397;47.506;19.158;2023-05-29T03:53:06;3.63;;;2.30;;
67571;SDS011;54397;47.506;19.158;2023-05-29T03:56:27;2.75;;;2.00;;
67571;SDS011;54397;47.506;19.158;2023-05-29T03:59:49;3.10;;;2.03;;
67571;SDS011;54397;47.506;19.158;2023-05-29T04:03:11;3.70;;;2.10;;
67571;SDS011;54397;47.506;19.158;2023-05-29T04:06:33;3.15;;;2.20;;
67571;SDS011;54397;47.506;19.158;2023-05-29T04:09:54;3.53;;;2.20;;
67571;SDS011;54397;47.506;19.158;2023-05-29T04:13:18;2.90;;;2.13;;
67571;SDS011;54397;47.506;19.158;2023-05-29T04:16:41;2.70;;;2.03;;
67571;SDS011;54397;47.506;19.158;2023-05-29T04:20:03;2.55;;;2.08;;
67571;SDS011;54397;47.506;19.158;2023-05-29T04:23:29;2.50;;;2.00;;
67571;SDS011;54397;47.506;19.158;2023-05-29T04:26:56;6.68;;;2.40;;
67571;SDS011;54397;47.506;19.158;2023-05-29T04:30:17;4.90;;;2.40;;
67571;SDS011;54397;47.506;19.158;2023-05-29T04:33:42;3.78;;;1.88;;
67571;SDS011;54397;47.506;19.158;2023-05-29T04:37:06;3.85;;;1.90;;
67571;SDS011;54397;47.506;19.158;2023-05-29T04:40:28;2.38;;;1.65;;
67571;SDS011;54397;47.506;19.158;2023-05-29T04:43:52;4.10;;;2.20;;
67571;SDS011;54397;47.506;19.158;2023-05-29T04:47:16;3.90;;;2.10;;
67571;SDS011;54397;47.506;19.158;2023-05-29T04:50:38;3.50;;;1.77;;
67571;SDS011;54397;47.506;19.158;2023-05-29T04:54:00;3.13;;;2.28;;
67571;SDS011;54397;47.506;19.158;2023-05-29T04:57:26;2.88;;;2.08;;
67571;SDS011;54397;47.506;19.158;2023-05-29T05:00:48;3.03;;;1.80;;
67571;SDS011;54397;47.506;19.158;2023-05-29T05:04:10;8.40;;;5.32;;
67571;SDS011;54397;47.506;19.158;2023-05-29T05:07:34;12.02;;;7.40;;
67571;SDS011;54397;47.506;19.158;2023-05-29T05:10:59;4.68;;;3.17;;
67571;SDS011;54397;47.506;19.158;2023-05-29T05:14:21;3.63;;;2.38;;
67571;SDS011;54397;47.506;19.158;2023-05-29T05:17:43;2.05;;;1.83;;
67571;SDS011;54397;47.506;19.158;2023-05-29T05:21:08;1.63;;;1.42;;
67571;SDS011;54397;47.506;19.158;2023-05-29T05:24:29;2.55;;;1.98;;
67571;SDS011;54397;47.506;19.158;2023-05-29T05:27:53;2.70;;;2.30;;
67571;SDS011;54397;47.506;19.158;2023-05-29T05:31:17;3.67;;;1.77;;
67571;SDS011;54397;47.506;19.158;2023-05-29T05:34:40;3.22;;;1.90;;
67571;SDS011;54397;47.506;19.158;2023-05-29T05:38:02;2.10;;;1.90;;
67571;SDS011;54397;47.506;19.158;2023-05-29T05:41:24;3.30;;;2.10;;
67571;SDS011;54397;47.506;19.158;2023-05-29T05:44:48;2.83;;;1.85;;
67571;SDS011;54397;47.506;19.158;2023-05-29T05:48:09;6.80;;;4.28;;
67571;SDS011;54397;47.506;19.158;2023-05-29T05:51:31;2.53;;;2.33;;
67571;SDS011;54397;47.506;19.158;2023-05-29T05:54:53;2.00;;;1.80;;
67571;SDS011;54397;47.506;19.158;2023-05-29T05:58:14;2.08;;;1.80;;
67571;SDS011;54397;47.506;19.158;2023-05-29T06:01:36;2.92;;;2.10;;
67571;SDS011;54397;47.506;19.158;2023-05-29T06:05:02;2.00;;;1.80;;
67571;SDS011;54397;47.506;19.158;2023-05-29T06:08:25;2.10;;;1.83;;
67571;SDS011;54397;47.506;19.158;2023-05-29T06:11:47;2.97;;;2.13;;
67571;SDS011;54397;47.506;19.158;2023-05-29T06:15:09;3.20;;;1.90;;
67571;SDS011;54397;47.506;19.158;2023-05-29T06:18:30;4.55;;;2.22;;
67571;SDS011;54397;47.506;19.158;2023-05-29T06:21:55;5.88;;;2.00;;
67571;SDS011;54397;47.506;19.158;2023-05-29T06:25:16;3.13;;;2.22;;
67571;SDS011;54397;47.506;19.158;2023-05-29T06:28:41;2.50;;;2.08;;
67571;SDS011;54397;47.506;19.158;2023-05-29T06:32:03;3.33;;;2.17;;
67571;SDS011;54397;47.506;19.158;2023-05-29T06:35:25;4.05;;;2.58;;
67571;SDS011;54397;47.506;19.158;2023-05-29T06:38:47;2.88;;;2.08;;
67571;SDS011;54397;47.506;19.158;2023-05-29T06:42:11;2.95;;;2.20;;
67571;SDS011;54397;47.506;19.158;2023-05-29T06:45:38;3.08;;;2.00;;
67571;SDS011;54397;47.506;19.158;2023-05-29T06:49:00;3.33;;;2.15;;
67571;SDS011;54397;47.506;19.158;2023-05-29T06:52:24;2.47;;;2.13;;
67571;SDS011;54397;47.506;19.158;2023-05-29T06:55:48;2.53;;;2.25;;
67571;SDS011;54397;47.506;19.158;2023-05-29T06:59:10;2.35;;;2.10;;
67571;SDS011;54397;47.506;19.158;2023-05-29T07:02:34;2.67;;;1.98;;
67571;SDS011;54397;47.506;19.158;2023-05-29T07:06:01;2.35;;;2.15;;
67571;SDS011;54397;47.506;19.158;2023-05-29T07:09:23;3.35;;;2.00;;
67571;SDS011;54397;47.506;19.158;2023-05-29T07:12:48;2.38;;;1.75;;
67571;SDS011;54397;47.506;19.158;2023-05-29T07:16:09;2.35;;;1.95;;
67571;SDS011;54397;47.506;19.158;2023-05-29T07:19:45;5.18;;;2.47;;
67571;SDS011;54397;47.506;19.158;2023-05-29T07:23:08;3.47;;;1.85;;
67571;SDS011;54397;47.506;19.158;2023-05-29T07:26:32;2.60;;;2.05;;
67571;SDS011;54397;47.506;19.158;2023-05-29T07:29:53;2.22;;;1.95;;
67571;SDS011;54397;47.506;19.158;2023-05-29T07:33:15;5.03;;;1.80;;
67571;SDS011;54397;47.506;19.158;2023-05-29T07:40:21;4.78;;;2.30;;
67571;SDS011;54397;47.506;19.158;2023-05-29T07:43:47;2.35;;;1.73;;
67571;SDS011;54397;47.506;19.158;2023-05-29T07:50:35;2.38;;;1.85;;
67571;SDS011;54397;47.506;19.158;2023-05-29T07:53:59;5.50;;;1.98;;
67571;SDS011;54397;47.506;19.158;2023-05-29T07:57:20;3.30;;;2.10;;
67571;SDS011;54397;47.506;19.158;2023-05-29T08:00:46;4.85;;;2.30;;
67571;SDS011;54397;47.506;19.158;2023-05-29T08:04:08;2.13;;;1.83;;
67571;SDS011;54397;47.506;19.158;2023-05-29T08:07:29;3.00;;;2.00;;
67571;SDS011;54397;47.506;19.158;2023-05-29T08:10:51;3.88;;;2.20;;
67571;SDS011;54397;47.506;19.158;2023-05-29T08:14:16;5.15;;;2.30;;
67571;SDS011;54397;47.506;19.158;2023-05-29T08:17:37;3.90;;;2.10;;
67571;SDS011;54397;47.506;19.158;2023-05-29T08:21:02;2.00;;;1.80;;
67571;SDS011;54397;47.506;19.158;2023-05-29T08:24:24;2.25;;;1.95;;
67571;SDS011;54397;47.506;19.158;2023-05-29T08:27:45;4.03;;;1.88;;
67571;SDS011;54397;47.506;19.158;2023-05-29T08:31:07;2.08;;;1.90;;
67571;SDS011;54397;47.506;19.158;2023-05-29T08:34:29;2.85;;;1.95;;
67571;SDS011;54397;47.506;19.158;2023-05-29T08:37:52;3.40;;;1.80;;
67571;SDS011;54397;47.506;19.158;2023-05-29T08:41:21;4.68;;;2.38;;
67571;SDS011;54397;47.506;19.158;2023-05-29T08:44:47;4.88;;;2.13;;
67571;SDS011;54397;47.506;19.158;2023-05-29T08:48:10;4.82;;;2.17;;
67571;SDS011;54397;47.506;19.158;2023-05-29T08:51:36;8.25;;;5.53;;
67571;SDS011;54397;47.506;19.158;2023-05-29T08:55:04;2.63;;;2.25;;
67571;SDS011;54397;47.506;19.158;2023-05-29T08:58:26;2.60;;;1.98;;
67571;SDS011;54397;47.506;19.158;2023-05-29T09:01:48;2.55;;;2.10;;
67571;SDS011;54397;47.506;19.158;2023-05-29T09:05:10;2.67;;;2.17;;
67571;SDS011;54397;47.506;19.158;2023-05-29T09:08:31;3.08;;;2.15;;
67571;SDS011;54397;47.506;19.158;2023-05-29T09:11:55;2.20;;;1.98;;
67571;SDS011;54397;47.506;19.158;2023-05-29T09:15:20;3.65;;;2.25;;
67571;SDS011;54397;47.506;19.158;2023-05-29T09:18:44;2.83;;;2.17;;
67571;SDS011;54397;47.506;19.158;2023-05-29T09:22:09;3.30;;;2.30;;
67571;SDS011;54397;47.506;19.158;2023-05-29T09:25:39;2.65;;;2.25;;
67571;SDS011;54397;47.506;19.158;2023-05-29T09:29:06;3.83;;;2.50;;
67571;SDS011;54397;47.506;19.158;2023-05-29T09:32:33;3.10;;;2.40;;
67571;SDS011;54397;47.506;19.158;2023-05-29T09:35:57;3.90;;;2.08;;
67571;SDS011;54397;47.506;19.158;2023-05-29T09:39:21;3.45;;;2.60;;
67571;SDS011;54397;47.506;19.158;2023-05-29T09:42:43;2.88;;;2.20;;
67571;SDS011;54397;47.506;19.158;2023-05-29T09:46:05;3.78;;;2.20;;
67571;SDS011;54397;47.506;19.158;2023-05-29T09:49:28;2.85;;;2.13;;
67571;SDS011;54397;47.506;19.158;2023-05-29T09:52:53;3.78;;;2.00;;
67571;SDS011;54397;47.506;19.158;2023-05-29T09:56:16;3.88;;;1.90;;
67571;SDS011;54397;47.506;19.158;2023-05-29T09:59:39;4.63;;;2.17;;
67571;SDS011;54397;47.506;19.158;2023-05-29T10:03:02;3.45;;;2.25;;
67571;SDS011;54397;47.506;19.158;2023-05-29T10:06:25;2.65;;;1.80;;
67571;SDS011;54397;47.506;19.158;2023-05-29T10:09:52;4.32;;;2.50;;
67571;SDS011;54397;47.506;19.158;2023-05-29T10:13:23;4.10;;;2.20;;
67571;SDS011;54397;47.506;19.158;2023-05-29T10:16:52;4.28;;;2.35;;
67571;SDS011;54397;47.506;19.158;2023-05-29T10:20:17;3.67;;;2.10;;
67571;SDS011;54397;47.506;19.158;2023-05-29T10:23:43;3.60;;;2.03;;
67571;SDS011;54397;47.506;19.158;2023-05-29T10:27:11;3.20;;;1.80;;
67571;SDS011;54397;47.506;19.158;2023-05-29T10:30:41;1.90;;;1.75;;
67571;SDS011;54397;47.506;19.158;2023-05-29T10:37:36;2.63;;;2.03;;
67571;SDS011;54397;47.506;19.158;2023-05-29T10:44:55;2.90;;;2.42;;
67571;SDS011;54397;47.506;19.158;2023-05-29T10:51:39;2.17;;;1.98;;
67571;SDS011;54397;47.506;19.158;2023-05-29T10:55:01;3.70;;;2.30;;
67571;SDS011;54397;47.506;19.158;2023-05-29T10:58:25;3.70;;;2.08;;
67571;SDS011;54397;47.506;19.158;2023-05-29T11:01:48;1.95;;;1.83;;
67571;SDS011;54397;47.506;19.158;2023-05-29T11:05:20;3.30;;;2.15;;
67571;SDS011;54397;47.506;19.158;2023-05-29T11:08:56;4.07;;;2.83;;
67571;SDS011;54397;47.506;19.158;2023-05-29T11:12:25;2.33;;;2.05;;
67571;SDS011;54397;47.506;19.158;2023-05-29T11:16:04;2.50;;;2.20;;
67571;SDS011;54397;47.506;19.158;2023-05-29T11:19:36;2.92;;;2.25;;
67571;SDS011;54397;47.506;19.158;2023-05-29T11:26:22;6.68;;;2.28;;
67571;SDS011;54397;47.506;19.158;2023-05-29T11:29:45;2.38;;;2.05;;
67571;SDS011;54397;47.506;19.158;2023-05-29T11:33:12;4.68;;;2.30;;
67571;SDS011;54397;47.506;19.158;2023-05-29T11:36:47;4.30;;;2.80;;
67571;SDS011;54397;47.506;19.158;2023-05-29T11:40:10;3.80;;;1.95;;
67571;SDS011;54397;47.506;19.158;2023-05-29T11:43:33;2.08;;;1.90;;
67571;SDS011;54397;47.506;19.158;2023-05-29T11:47:05;3.33;;;2.30;;
67571;SDS011;54397;47.506;19.158;2023-05-29T11:50:29;3.80;;;2.35;;
67571;SDS011;54397;47.506;19.158;2023-05-29T11:53:53;2.85;;;2.17;;
67571;SDS011;54397;47.506;19.158;2023-05-29T11:57:21;4.85;;;2.38;;
67571;SDS011;54397;47.506;19.158;2023-05-29T12:00:47;12.25;;;3.63;;
67571;SDS011;54397;47.506;19.158;2023-05-29T12:07:37;3.55;;;2.53;;
67571;SDS011;54397;47.506;19.158;2023-05-29T12:10:58;4.75;;;2.30;;
67571;SDS011;54397;47.506;19.158;2023-05-29T12:14:22;3.35;;;2.30;;
67571;SDS011;54397;47.506;19.158;2023-05-29T12:17:44;3.42;;;2.25;;
67571;SDS011;54397;47.506;19.158;2023-05-29T12:21:07;4.75;;;2.28;;
67571;SDS011;54397;47.506;19.158;2023-05-29T12:24:29;4.13;;;2.08;;
67571;SDS011;54397;47.506;19.158;2023-05-29T12:28:05;8.30;;;2.55;;
67571;SDS011;54397;47.506;19.158;2023-05-29T12:31:28;2.67;;;2.25;;
67571;SDS011;54397;47.506;19.158;2023-05-29T12:34:50;3.33;;;2.22;;
67571;SDS011;54397;47.506;19.158;2023-05-29T12:38:12;4.32;;;2.67;;
67571;SDS011;54397;47.506;19.158;2023-05-29T12:41:36;3.05;;;2.20;;
67571;SDS011;54397;47.506;19.158;2023-05-29T12:45:02;2.33;;;2.13;;
67571;SDS011;54397;47.506;19.158;2023-05-29T12:48:33;4.47;;;2.50;;
67571;SDS011;54397;47.506;19.158;2023-05-29T12:51:54;3.10;;;2.22;;
67571;SDS011;54397;47.506;19.158;2023-05-29T12:55:29;3.72;;;2.50;;
67571;SDS011;54397;47.506;19.158;2023-05-29T12:58:56;3.10;;;2.10;;
67571;SDS011;54397;47.506;19.158;2023-05-29T13:02:18;2.72;;;2.17;;
67571;SDS011;54397;47.506;19.158;2023-05-29T13:05:45;3.22;;;2.25;;
67571;SDS011;54397;47.506;19.158;2023-05-29T13:09:07;3.17;;;2.03;;
67571;SDS011;54397;47.506;19.158;2023-05-29T13:12:34;3.53;;;2.63;;
67571;SDS011;54397;47.506;19.158;2023-05-29T13:15:56;3.38;;;2.33;;
67571;SDS011;54397;47.506;19.158;2023-05-29T13:19:18;2.58;;;2.22;;
67571;SDS011;54397;47.506;19.158;2023-05-29T13:22:43;4.10;;;2.40;;
67571;SDS011;54397;47.506;19.158;2023-05-29T13:26:06;3.85;;;2.30;;
67571;SDS011;54397;47.506;19.158;2023-05-29T13:29:31;2.92;;;2.50;;
67571;SDS011;54397;47.506;19.158;2023-05-29T13:32:58;2.55;;;2.35;;
67571;SDS011;54397;47.506;19.158;2023-05-29T13:36:20;2.63;;;2.20;;
67571;SDS011;54397;47.506;19.158;2023-05-29T13:39:41;2.80;;;2.53;;
67571;SDS011;54397;47.506;19.158;2023-05-29T13:43:03;3.17;;;2.13;;
67571;SDS011;54397;47.506;19.158;2023-05-29T13:46:25;2.47;;;1.95;;
67571;SDS011;54397;47.506;19.158;2023-05-29T13:49:48;2.67;;;2.13;;
67571;SDS011;54397;47.506;19.158;2023-05-29T13:53:13;3.10;;;2.80;;
67571;SDS011;54397;47.506;19.158;2023-05-29T13:56:38;2.95;;;2.25;;
67571;SDS011;54397;47.506;19.158;2023-05-29T13:59:59;2.45;;;2.25;;
67571;SDS011;54397;47.506;19.158;2023-05-29T14:03:21;2.85;;;2.45;;
67571;SDS011;54397;47.506;19.158;2023-05-29T14:06:45;3.40;;;2.28;;
67571;SDS011;54397;47.506;19.158;2023-05-29T14:10:09;2.97;;;2.40;;
67571;SDS011;54397;47.506;19.158;2023-05-29T14:13:33;3.60;;;2.58;;
67571;SDS011;54397;47.506;19.158;2023-05-29T14:16:55;3.10;;;2.70;;
67571;SDS011;54397;47.506;19.158;2023-05-29T14:20:17;5.88;;;3.08;;
67571;SDS011;54397;47.506;19.158;2023-05-29T14:23:38;4.03;;;3.20;;
67571;SDS011;54397;47.506;19.158;2023-05-29T14:27:00;2.70;;;2.50;;
67571;SDS011;54397;47.506;19.158;2023-05-29T14:30:24;2.75;;;2.22;;
67571;SDS011;54397;47.506;19.158;2023-05-29T14:33:46;2.85;;;2.22;;
67571;SDS011;54397;47.506;19.158;2023-05-29T14:37:07;2.88;;;2.25;;
67571;SDS011;54397;47.506;19.158;2023-05-29T14:40:29;3.45;;;2.25;;
67571;SDS011;54397;47.506;19.158;2023-05-29T14:43:52;2.95;;;2.45;;
67571;SDS011;54397;47.506;19.158;2023-05-29T14:47:14;3.17;;;2.53;;
67571;SDS011;54397;47.506;19.158;2023-05-29T14:50:39;5.57;;;2.40;;
67571;SDS011;54397;47.506;19.158;2023-05-29T14:54:01;3.40;;;2.17;;
67571;SDS011;54397;47.506;19.158;2023-05-29T14:57:23;2.88;;;2.40;;
67571;SDS011;54397;47.506;19.158;2023-05-29T15:00:46;3.80;;;2.65;;
67571;SDS011;54397;47.506;19.158;2023-05-29T15:04:11;3.33;;;2.55;;
67571;SDS011;54397;47.506;19.158;2023-05-29T15:07:32;2.75;;;2.35;;
67571;SDS011;54397;47.506;19.158;2023-05-29T15:10:57;5.60;;;2.60;;
67571;SDS011;54397;47.506;19.158;2023-05-29T15:14:18;3.53;;;2.45;;
67571;SDS011;54397;47.506;19.158;2023-05-29T15:17:42;3.33;;;2.50;;
67571;SDS011;54397;47.506;19.158;2023-05-29T15:21:08;4.35;;;2.60;;
67571;SDS011;54397;47.506;19.158;2023-05-29T15:24:29;3.33;;;2.53;;
67571;SDS011;54397;47.506;19.158;2023-05-29T15:27:51;4.00;;;2.50;;
67571;SDS011;54397;47.506;19.158;2023-05-29T15:31:13;2.67;;;2.47;;
67571;SDS011;54397;47.506;19.158;2023-05-29T15:34:36;3.30;;;2.58;;
67571;SDS011;54397;47.506;19.158;2023-05-29T15:37:58;4.93;;;2.65;;
67571;SDS011;54397;47.506;19.158;2023-05-29T15:41:19;3.95;;;2.70;;
67571;SDS011;54397;47.506;19.158;2023-05-29T15:44:49;3.10;;;2.60;;
67571;SDS011;54397;47.506;19.158;2023-05-29T15:48:11;2.75;;;2.55;;
67571;SDS011;54397;47.506;19.158;2023-05-29T15:51:33;5.00;;;2.80;;
67571;SDS011;54397;47.506;19.158;2023-05-29T15:54:57;4.18;;;2.67;;
67571;SDS011;54397;47.506;19.158;2023-05-29T15:58:24;4.35;;;2.50;;
67571;SDS011;54397;47.506;19.158;2023-05-29T16:01:46;3.22;;;2.53;;
67571;SDS011;54397;47.506;19.158;2023-05-29T16:05:07;9.48;;;4.60;;
67571;SDS011;54397;47.506;19.158;2023-05-29T16:08:32;6.05;;;4.00;;
67571;SDS011;54397;47.506;19.158;2023-05-29T16:11:54;3.95;;;3.35;;
67571;SDS011;54397;47.506;19.158;2023-05-29T16:15:18;7.03;;;4.40;;
67571;SDS011;54397;47.506;19.158;2023-05-29T16:18:40;9.00;;;6.80;;
67571;SDS011;54397;47.506;19.158;2023-05-29T16:22:06;6.22;;;5.00;;
67571;SDS011;54397;47.506;19.158;2023-05-29T16:25:33;5.22;;;3.85;;
67571;SDS011;54397;47.506;19.158;2023-05-29T16:28:57;5.20;;;3.55;;
67571;SDS011;54397;47.506;19.158;2023-05-29T16:32:23;4.32;;;2.65;;
67571;SDS011;54397;47.506;19.158;2023-05-29T16:35:49;5.15;;;3.50;;
67571;SDS011;54397;47.506;19.158;2023-05-29T16:39:11;3.97;;;3.22;;
67571;SDS011;54397;47.506;19.158;2023-05-29T16:42:33;3.08;;;2.47;;
67571;SDS011;54397;47.506;19.158;2023-05-29T16:45:57;2.92;;;2.45;;
67571;SDS011;54397;47.506;19.158;2023-05-29T16:49:19;3.78;;;2.72;;
67571;SDS011;54397;47.506;19.158;2023-05-29T16:52:43;3.08;;;2.78;;
67571;SDS011;54397;47.506;19.158;2023-05-29T16:56:04;5.97;;;2.90;;
67571;SDS011;54397;47.506;19.158;2023-05-29T16:59:28;3.67;;;2.95;;
67571;SDS011;54397;47.506;19.158;2023-05-29T17:02:49;3.33;;;2.42;;
67571;SDS011;54397;47.506;19.158;2023-05-29T17:06:14;4.13;;;2.72;;
67571;SDS011;54397;47.506;19.158;2023-05-29T17:09:38;3.65;;;2.83;;
67571;SDS011;54397;47.506;19.158;2023-05-29T17:13:00;7.75;;;3.00;;
67571;SDS011;54397;47.506;19.158;2023-05-29T17:16:24;2.80;;;2.40;;
67571;SDS011;54397;47.506;19.158;2023-05-29T17:19:48;3.17;;;2.88;;
67571;SDS011;54397;47.506;19.158;2023-05-29T17:23:10;3.42;;;2.78;;
67571;SDS011;54397;47.506;19.158;2023-05-29T17:26:34;6.95;;;4.07;;
67571;SDS011;54397;47.506;19.158;2023-05-29T17:30:00;14.02;;;8.05;;
67571;SDS011;54397;47.506;19.158;2023-05-29T17:33:24;12.18;;;7.78;;
67571;SDS011;54397;47.506;19.158;2023-05-29T17:36:46;23.98;;;14.77;;
67571;SDS011;54397;47.506;19.158;2023-05-29T17:40:10;14.88;;;10.05;;
67571;SDS011;54397;47.506;19.158;2023-05-29T17:43:35;9.73;;;7.10;;
67571;SDS011;54397;47.506;19.158;2023-05-29T17:46:59;4.18;;;3.20;;
67571;SDS011;54397;47.506;19.158;2023-05-29T17:50:21;7.57;;;3.50;;
67571;SDS011;54397;47.506;19.158;2023-05-29T17:53:43;3.05;;;2.60;;
67571;SDS011;54397;47.506;19.158;2023-05-29T17:57:05;3.10;;;2.80;;
67571;SDS011;54397;47.506;19.158;2023-05-29T18:00:26;3.65;;;3.05;;
67571;SDS011;54397;47.506;19.158;2023-05-29T18:03:49;3.58;;;2.83;;
67571;SDS011;54397;47.506;19.158;2023-05-29T18:07:11;3.15;;;2.72;;
67571;SDS011;54397;47.506;19.158;2023-05-29T18:10:33;3.67;;;2.95;;
67571;SDS011;54397;47.506;19.158;2023-05-29T18:13:55;3.38;;;3.03;;
67571;SDS011;54397;47.506;19.158;2023-05-29T18:17:16;3.10;;;2.65;;
67571;SDS011;54397;47.506;19.158;2023-05-29T18:20:38;4.78;;;3.30;;
67571;SDS011;54397;47.506;19.158;2023-05-29T18:24:00;3.88;;;2.65;;
67571;SDS011;54397;47.506;19.158;2023-05-29T18:27:25;5.05;;;2.97;;
67571;SDS011;54397;47.506;19.158;2023-05-29T18:30:47;6.90;;;3.08;;
67571;SDS011;54397;47.506;19.158;2023-05-29T18:34:12;4.53;;;3.38;;
67571;SDS011;54397;47.506;19.158;2023-05-29T18:37:36;5.40;;;3.10;;
67571;SDS011;54397;47.506;19.158;2023-05-29T18:40:57;7.70;;;3.05;;
67571;SDS011;54397;47.506;19.158;2023-05-29T18:44:19;4.45;;;3.17;;
67571;SDS011;54397;47.506;19.158;2023-05-29T18:47:41;4.35;;;3.33;;
67571;SDS011;54397;47.506;19.158;2023-05-29T18:51:04;5.20;;;3.33;;
67571;SDS011;54397;47.506;19.158;2023-05-29T18:54:26;3.78;;;2.80;;
67571;SDS011;54397;47.506;19.158;2023-05-29T18:57:53;5.18;;;3.08;;
67571;SDS011;54397;47.506;19.158;2023-05-29T19:01:17;7.82;;;5.05;;
67571;SDS011;54397;47.506;19.158;2023-05-29T19:04:53;6.97;;;5.13;;
67571;SDS011;54397;47.506;19.158;2023-05-29T19:08:18;4.85;;;3.55;;
67571;SDS011;54397;47.506;19.158;2023-05-29T19:11:39;5.63;;;3.13;;
67571;SDS011;54397;47.506;19.158;2023-05-29T19:15:01;7.20;;;3.55;;
67571;SDS011;54397;47.506;19.158;2023-05-29T19:18:25;6.13;;;3.40;;
67571;SDS011;54397;47.506;19.158;2023-05-29T19:21:46;4.50;;;3.58;;
67571;SDS011;54397;47.506;19.158;2023-05-29T19:25:08;4.63;;;3.20;;
67571;SDS011;54397;47.506;19.158;2023-05-29T19:28:32;5.75;;;3.38;;
67571;SDS011;54397;47.506;19.158;2023-05-29T19:31:57;5.22;;;3.80;;
67571;SDS011;54397;47.506;19.158;2023-05-29T19:35:21;6.50;;;3.38;;
67571;SDS011;54397;47.506;19.158;2023-05-29T19:38:43;6.75;;;3.28;;
67571;SDS011;54397;47.506;19.158;2023-05-29T19:42:05;3.58;;;3.10;;
67571;SDS011;54397;47.506;19.158;2023-05-29T19:45:29;4.80;;;3.25;;
67571;SDS011;54397;47.506;19.158;2023-05-29T19:48:51;2.80;;;2.53;;
67571;SDS011;54397;47.506;19.158;2023-05-29T19:52:15;6.28;;;3.38;;
67571;SDS011;54397;47.506;19.158;2023-05-29T19:55:37;6.15;;;3.40;;
67571;SDS011;54397;47.506;19.158;2023-05-29T19:58:59;6.25;;;3.08;;
67571;SDS011;54397;47.506;19.158;2023-05-29T20:02:23;4.25;;;3.50;;
67571;SDS011;54397;47.506;19.158;2023-05-29T20:05:49;6.78;;;3.42;;
67571;SDS011;54397;47.506;19.158;2023-05-29T20:09:11;3.92;;;2.85;;
67571;SDS011;54397;47.506;19.158;2023-05-29T20:12:33;5.32;;;3.50;;
67571;SDS011;54397;47.506;19.158;2023-05-29T20:15:55;4.40;;;3.30;;
67571;SDS011;54397;47.506;19.158;2023-05-29T20:19:18;3.83;;;2.95;;
67571;SDS011;54397;47.506;19.158;2023-05-29T20:22:39;4.43;;;3.38;;
67571;SDS011;54397;47.506;19.158;2023-05-29T20:26:01;7.65;;;3.60;;
67571;SDS011;54397;47.506;19.158;2023-05-29T20:29:45;5.85;;;3.20;;
67571;SDS011;54397;47.506;19.158;2023-05-29T20:33:09;6.22;;;3.25;;
67571;SDS011;54397;47.506;19.158;2023-05-29T20:36:33;4.35;;;3.17;;
67571;SDS011;54397;47.506;19.158;2023-05-29T20:40:05;6.10;;;3.80;;